Dixon, South Dakota
Current Conditions -  °F | °C
As of 5:53 AM on Thursday 18 Dec 2014 (Local Time) from KICR Reporting Station
Overcast Overcast  
Wind Chill: 15°   Ceiling: 1100
Heat Index: 24°   Visibility: NA
Dew Point: 21°   Wind: 8mph
Humidity: 88%   Direction: 140°SE
Pressure: 30.1"   Gusts: NA
Location:  43.2419°N, 99.4287°W
Report Text: KICR 181153Z AUTO 14007KT OVC011 M04/M06 A3010 RMK AO2 SLP221 7//// I6000 T10441061 11044 21056 55006 $
Loading
Personal Weather Stations






























Interactive Weather Map New forecast layout! Learn more

10-Day Weather Forecast

Advertisements
Track Severe Weather on mobile